Amber, Oklahoma
Current Conditions -  °F | °C
As of 5:35 AM on Friday 24 Oct 2014 (Local Time) from KRCE Reporting Station
NA  
Wind Chill: 57°   Ceiling: NA
Heat Index: 57°   Visibility: NA
Dew Point: 57°   Wind: 9mph
Humidity: 100%   Direction: 170°S
Pressure: 30.09"   Gusts: NA
Location:  35.16°N, 97.88°W
Report Text: KRCE 241035Z AUTO 17008KT 14/14 A3009 RMK AO2
Loading
Personal Weather Stations






























Interactive Weather Map New forecast layout! Learn more

10-Day Weather Forecast

Advertisements
Track Severe Weather on mobile